Time;durP1;ratioP1;P1;durP2;ratioP2;P2;SDS_P1;SDS_P2;PMS_P1;PMS_P2;Temp;Humidity;BMP_temperature;BMP_pressure;BME280_temperature;BME280_humidity;BME280_pressure;Samples;Min_cycle;Max_cycle;Signal;HPM_P1;HPM_P2
2022/01/17 00:00:26;;;;;;;;;;;0.90;93.30;;;;;;5053965;28;19921;-89
2022/01/17 00:02:52;;;;;;;;;;;0.90;93.00;;;;;;5053802;28;19908;-88
2022/01/17 00:05:17;;;;;;;;;;;0.80;92.70;;;;;;5053785;28;19908;-89
2022/01/17 00:07:43;;;;;;;;;;;0.60;92.40;;;;;;5053807;28;19909;-89
2022/01/17 00:10:09;;;;;;;;;;;0.50;92.30;;;;;;5053712;28;19909;-88
2022/01/17 00:12:38;;;;;;;;;;;0.50;92.20;;;;;;5053528;28;19913;-88
2022/01/17 00:15:11;;;;;;;;;;;0.50;92.40;;;;;;5053805;28;19920;-88
2022/01/17 00:17:40;;;;;;;;;;;0.50;92.60;;;;;;5053630;28;20003;-89
2022/01/17 00:20:10;;;;;;;;;;;0.50;92.40;;;;;;5053818;28;19992;-88
2022/01/17 00:22:38;;;;;;;;;;;0.40;92.10;;;;;;5053707;28;19909;-88
2022/01/17 00:25:04;;;;;;;;;;;0.30;92.30;;;;;;5053685;28;19917;-89
2022/01/17 00:27:31;;;;;;;;;;;0.40;92.70;;;;;;5053269;28;19913;-89
2022/01/17 00:29:56;;;;;;;;;;;0.40;93.00;;;;;;5053416;28;19916;-88
2022/01/17 00:32:22;;;;;;;;;;;0.50;93.20;;;;;;5053614;28;20291;-87
2022/01/17 00:34:47;;;;;;;;;;;0.70;93.90;;;;;;5053186;28;20417;-88
2022/01/17 00:37:13;;;;;;;;;;;0.90;93.80;;;;;;5053818;28;19909;-87
2022/01/17 00:39:39;;;;;;;;;;;0.90;93.10;;;;;;5053188;28;19974;-87
2022/01/17 00:42:04;;;;;;;;;;;0.80;92.70;;;;;;5052710;28;19920;-87
2022/01/17 00:44:30;;;;;;;;;;;0.80;92.80;;;;;;5053171;28;20390;-87
2022/01/17 00:46:55;;;;;;;;;;;0.80;92.70;;;;;;5053108;28;19916;-87
2022/01/17 00:49:21;;;;;;;;;;;0.70;92.30;;;;;;5053089;28;19909;-87
2022/01/17 00:51:47;;;;;;;;;;;0.60;91.80;;;;;;5053045;28;20008;-87
2022/01/17 00:54:12;;;;;;;;;;;0.60;91.70;;;;;;5052815;28;19921;-87
2022/01/17 00:56:38;;;;;;;;;;;0.70;91.80;;;;;;5052995;28;19956;-87
2022/01/17 00:59:04;;;;;;;;;;;0.60;91.40;;;;;;5052896;28;20352;-87
2022/01/17 01:01:29;;;;;;;;;;;0.50;91.20;;;;;;5052957;28;19909;-87
2022/01/17 01:03:55;;;;;;;;;;;0.50;91.10;;;;;;5052927;28;20375;-88
2022/01/17 01:06:20;;;;;;;;;;;0.50;91.20;;;;;;5052889;28;20390;-87
2022/01/17 01:08:46;;;;;;;;;;;0.50;91.10;;;;;;5052779;28;20007;-88
2022/01/17 01:11:11;;;;;;;;;;;0.50;91.50;;;;;;5052858;28;19909;-88
2022/01/17 01:13:37;;;;;;;;;;;0.30;91.30;;;;;;5052815;28;19916;-88
2022/01/17 01:18:39;;;;;;;;;;;0.30;92.60;;;;;;5053055;28;19909;-88
2022/01/17 01:29:02;;;;;;;;;;;0.30;92.00;;;;;;5052633;28;19954;-87
2022/01/17 01:31:41;;;;;;;;;;;0.50;92.30;;;;;;5052633;28;19913;-88
2022/01/17 01:34:08;;;;;;;;;;;0.70;92.60;;;;;;5052901;28;19967;-87
2022/01/17 01:36:34;;;;;;;;;;;0.70;92.00;;;;;;5053161;28;19920;-88
2022/01/17 01:39:00;;;;;;;;;;;0.60;91.70;;;;;;5052619;28;19990;-88
2022/01/17 01:51:32;;;;;;;;;;;0.10;91.20;;;;;;5131378;27;19912;-89
2022/01/17 01:53:58;;;;;;;;;;;0.00;91.70;;;;;;5131456;27;19911;-88
2022/01/17 01:56:23;;;;;;;;;;;0.00;92.00;;;;;;5131421;27;20318;-88
2022/01/17 01:58:49;;;;;;;;;;;0.00;92.10;;;;;;5131334;27;19907;-89
2022/01/17 02:01:14;;;;;;;;;;;0.00;92.00;;;;;;5131356;27;19946;-89
2022/01/17 02:03:40;;;;;;;;;;;0.00;92.10;;;;;;5131285;27;19946;-89
2022/01/17 02:06:05;;;;;;;;;;;0.00;91.90;;;;;;5131172;27;19908;-89
2022/01/17 02:08:31;;;;;;;;;;;-3276.70;91.50;;;;;;5131091;27;19923;-89
2022/01/17 02:10:57;;;;;;;;;;;0.00;92.40;;;;;;5131369;27;20003;-88
2022/01/17 02:13:25;;;;;;;;;;;0.00;92.80;;;;;;5131077;27;19918;-88
2022/01/17 02:15:51;;;;;;;;;;;0.00;93.10;;;;;;5131037;27;19912;-89
2022/01/17 02:18:22;;;;;;;;;;;0.00;93.20;;;;;;5131036;27;20316;-89
2022/01/17 02:21:09;;;;;;;;;;;0.00;93.10;;;;;;5130869;28;19908;-88
2022/01/17 02:23:33;;;;;;;;;;;0.10;93.10;;;;;;5130734;28;19919;-87
2022/01/17 02:25:59;;;;;;;;;;;0.10;93.10;;;;;;5130824;27;20292;-89
2022/01/17 02:57:57;;;;;;;;;;;0.60;91.60;;;;;;5110962;27;19912;-87
2022/01/17 03:00:22;;;;;;;;;;;-3276.70;90.10;;;;;;5110887;28;19917;-89
2022/01/17 03:02:49;;;;;;;;;;;-3276.70;91.10;;;;;;5110844;28;19908;-89
2022/01/17 03:05:16;;;;;;;;;;;-3276.70;91.50;;;;;;5110772;28;19908;-89
2022/01/17 03:07:41;;;;;;;;;;;-3276.60;91.30;;;;;;5110755;28;19999;-89
2022/01/17 03:10:14;;;;;;;;;;;-3276.70;91.80;;;;;;5110649;28;19947;-89
2022/01/17 03:12:39;;;;;;;;;;;0.00;91.80;;;;;;5110611;28;19915;-89
2022/01/17 03:15:05;;;;;;;;;;;0.00;91.50;;;;;;5110632;28;19909;-89
2022/01/17 03:17:31;;;;;;;;;;;0.00;91.30;;;;;;5110358;28;19916;-89
2022/01/17 03:19:56;;;;;;;;;;;0.00;91.30;;;;;;5110471;28;19908;-89
2022/01/17 03:22:22;;;;;;;;;;;-3276.50;90.70;;;;;;5110461;28;19933;-89
2022/01/17 03:24:47;;;;;;;;;;;-3276.40;90.80;;;;;;5110474;28;19912;-89
2022/01/17 03:27:13;;;;;;;;;;;-3276.50;90.80;;;;;;5109289;28;19908;-89
2022/01/17 03:29:38;;;;;;;;;;;-3276.50;91.00;;;;;;5110308;28;19908;-89
2022/01/17 03:32:04;;;;;;;;;;;-3276.50;91.00;;;;;;5110323;28;19930;-89
2022/01/17 03:34:29;;;;;;;;;;;-3276.50;91.40;;;;;;5110273;28;20371;-89
2022/01/17 03:36:55;;;;;;;;;;;-3276.60;91.70;;;;;;5110108;28;19912;-89
2022/01/17 03:39:20;;;;;;;;;;;-3276.70;91.60;;;;;;5110187;28;19912;-89
2022/01/17 04:15:21;;;;;;;;;;;-3276.70;91.30;;;;;;5081548;27;2022208;-88
2022/01/17 04:20:26;;;;;;;;;;;0.70;95.60;;;;;;5111039;27;19918;-87
2022/01/17 04:22:53;;;;;;;;;;;0.60;95.30;;;;;;5111177;28;19912;-87
2022/01/17 04:25:35;;;;;;;;;;;0.70;95.30;;;;;;5077925;27;2178758;-87
2022/01/17 04:28:02;;;;;;;;;;;0.70;95.20;;;;;;5151824;27;20304;-87
2022/01/17 04:30:28;;;;;;;;;;;0.60;95.00;;;;;;5151900;27;20285;-87
2022/01/17 04:32:54;;;;;;;;;;;0.60;95.00;;;;;;5151983;27;19923;-87
2022/01/17 04:36:47;;;;;;;;;;;0.70;95.00;;;;;;5110902;27;19912;-88
2022/01/17 04:39:16;;;;;;;;;;;0.90;94.90;;;;;;5110886;28;20353;-87
2022/01/17 04:41:42;;;;;;;;;;;0.80;94.90;;;;;;5111048;28;19908;-88
2022/01/17 04:46:51;;;;;;;;;;;0.70;94.90;;;;;;5111045;28;19915;-88
2022/01/17 04:49:17;;;;;;;;;;;0.80;95.00;;;;;;5110692;28;20006;-88
2022/01/17 04:51:42;;;;;;;;;;;0.80;95.10;;;;;;5110537;28;19908;-88
2022/01/17 04:54:38;;;;;;;;;;;0.90;95.20;;;;;;5110855;28;19958;-88
2022/01/17 04:56:54;;;;;;;;;;;0.90;95.30;;;;;;5110260;28;20381;-88
2022/01/17 04:59:19;;;;;;;;;;;0.90;95.40;;;;;;5110448;28;19912;-88
2022/01/17 05:01:45;;;;;;;;;;;0.90;95.50;;;;;;5110530;28;20415;-88
2022/01/17 05:04:11;;;;;;;;;;;0.90;95.50;;;;;;5109068;28;20357;-88
2022/01/17 05:06:36;;;;;;;;;;;1.00;95.70;;;;;;5110360;28;19956;-88
2022/01/17 05:09:05;;;;;;;;;;;1.00;95.70;;;;;;5110282;28;20396;-88
2022/01/17 05:11:31;;;;;;;;;;;1.00;95.70;;;;;;5109000;28;19909;-88
2022/01/17 05:13:57;;;;;;;;;;;1.10;95.70;;;;;;5110556;28;19926;-88
2022/01/17 05:16:31;;;;;;;;;;;1.10;95.80;;;;;;5110091;28;20057;-87
2022/01/17 05:21:41;;;;;;;;;;;1.00;95.70;;;;;;5110112;28;19915;-88
2022/01/17 05:24:06;;;;;;;;;;;1.00;95.80;;;;;;5110114;28;19908;-88
2022/01/17 05:26:32;;;;;;;;;;;1.00;95.80;;;;;;5109987;28;20006;-88
2022/01/17 05:28:57;;;;;;;;;;;1.10;95.80;;;;;;5109476;28;20373;-88
2022/01/17 05:31:23;;;;;;;;;;;1.10;95.90;;;;;;5109831;28;19908;-88
2022/01/17 05:33:48;;;;;;;;;;;1.10;95.90;;;;;;5109790;28;19922;-89
2022/01/17 05:36:14;;;;;;;;;;;1.20;96.00;;;;;;5109546;28;19920;-88
2022/01/17 05:38:39;;;;;;;;;;;1.20;96.00;;;;;;5109710;28;19912;-88
2022/01/17 05:41:05;;;;;;;;;;;1.20;96.00;;;;;;5109723;28;19912;-89
2022/01/17 05:43:30;;;;;;;;;;;1.20;96.10;;;;;;5109578;28;19977;-89
2022/01/17 05:45:56;;;;;;;;;;;1.20;96.10;;;;;;5108912;28;19998;-89
2022/01/17 05:48:21;;;;;;;;;;;1.20;96.10;;;;;;5094060;28;19912;-89
2022/01/17 05:50:47;;;;;;;;;;;1.20;96.10;;;;;;5087268;28;19916;-88
2022/01/17 05:53:14;;;;;;;;;;;1.10;96.10;;;;;;5086731;28;20384;-88
2022/01/17 05:55:40;;;;;;;;;;;1.10;96.10;;;;;;5091067;28;19921;-87
2022/01/17 05:58:05;;;;;;;;;;;1.20;96.20;;;;;;5075214;28;20370;-87
2022/01/17 06:00:31;;;;;;;;;;;1.20;96.20;;;;;;5082013;28;19913;-88
2022/01/17 06:02:57;;;;;;;;;;;1.20;96.20;;;;;;5076802;28;19912;-88
2022/01/17 06:05:22;;;;;;;;;;;1.20;96.30;;;;;;5082389;28;19915;-87
2022/01/17 06:07:48;;;;;;;;;;;1.20;96.30;;;;;;5075427;28;20358;-88
2022/01/17 06:10:13;;;;;;;;;;;1.10;96.30;;;;;;5085841;28;19916;-88
2022/01/17 06:12:39;;;;;;;;;;;1.10;96.30;;;;;;5079959;28;19913;-88
2022/01/17 06:15:05;;;;;;;;;;;1.20;96.40;;;;;;5078539;28;19930;-88
2022/01/17 06:17:30;;;;;;;;;;;1.20;96.40;;;;;;5087428;28;19934;-88
2022/01/17 06:19:56;;;;;;;;;;;1.20;96.50;;;;;;5082494;28;20143;-88
2022/01/17 06:22:21;;;;;;;;;;;1.20;96.50;;;;;;5081483;28;19912;-88
2022/01/17 06:24:47;;;;;;;;;;;1.20;96.50;;;;;;5094304;28;19945;-89
2022/01/17 06:27:13;;;;;;;;;;;1.20;96.50;;;;;;5081181;28;19916;-88
2022/01/17 06:29:38;;;;;;;;;;;1.20;96.60;;;;;;5079994;28;19969;-89
2022/01/17 06:32:04;;;;;;;;;;;1.30;96.60;;;;;;5089526;28;19912;-88
2022/01/17 06:34:30;;;;;;;;;;;1.30;96.60;;;;;;5094525;28;19916;-88
2022/01/17 06:36:55;;;;;;;;;;;1.20;96.60;;;;;;5091793;28;19964;-88
2022/01/17 06:39:21;;;;;;;;;;;1.20;96.60;;;;;;5086671;28;19912;-89
2022/01/17 06:41:47;;;;;;;;;;;1.20;96.60;;;;;;5087006;28;19927;-89
2022/01/17 06:44:12;;;;;;;;;;;1.30;96.60;;;;;;5083559;28;20332;-89
2022/01/17 06:46:38;;;;;;;;;;;1.30;96.60;;;;;;5074735;28;20014;-89
2022/01/17 06:49:04;;;;;;;;;;;1.30;96.60;;;;;;5081465;28;20365;-89
2022/01/17 06:51:30;;;;;;;;;;;1.40;96.60;;;;;;5085329;28;19916;-89
2022/01/17 06:53:55;;;;;;;;;;;1.50;96.60;;;;;;5090496;28;20008;-89
2022/01/17 06:56:21;;;;;;;;;;;1.60;96.60;;;;;;5074553;28;19952;-89
2022/01/17 06:58:47;;;;;;;;;;;1.60;96.60;;;;;;5089249;28;20326;-89
2022/01/17 07:01:14;;;;;;;;;;;1.80;96.60;;;;;;5090880;28;19912;-89
2022/01/17 07:03:39;;;;;;;;;;;1.80;96.60;;;;;;5092185;28;19916;-88
2022/01/17 07:06:05;;;;;;;;;;;1.70;96.60;;;;;;5075947;28;20038;-88
2022/01/17 07:08:31;;;;;;;;;;;1.60;96.60;;;;;;5080700;28;19970;-88
2022/01/17 07:10:56;;;;;;;;;;;1.50;96.60;;;;;;5090039;28;19912;-88
2022/01/17 07:13:22;;;;;;;;;;;1.50;96.60;;;;;;5081961;28;20006;-88
2022/01/17 07:15:47;;;;;;;;;;;1.50;96.60;;;;;;5087604;28;19924;-89
2022/01/17 07:18:13;;;;;;;;;;;1.40;96.70;;;;;;5075868;28;19951;-88
2022/01/17 07:20:39;;;;;;;;;;;1.40;96.70;;;;;;5078285;28;19923;-89
2022/01/17 07:23:04;;;;;;;;;;;1.40;96.70;;;;;;5077040;28;20214;-88
2022/01/17 07:25:30;;;;;;;;;;;1.40;96.70;;;;;;5074843;28;20427;-89
2022/01/17 07:27:57;;;;;;;;;;;1.30;96.70;;;;;;5088515;28;20037;-89
2022/01/17 07:30:23;;;;;;;;;;;1.40;96.70;;;;;;5092055;28;19918;-89
2022/01/17 07:32:49;;;;;;;;;;;1.40;96.70;;;;;;5091355;28;19916;-89
2022/01/17 07:35:15;;;;;;;;;;;1.30;96.70;;;;;;5093417;28;19927;-89
2022/01/17 07:37:40;;;;;;;;;;;1.20;96.70;;;;;;5084988;28;19912;-89
2022/01/17 07:40:06;;;;;;;;;;;1.30;96.70;;;;;;5073438;28;19944;-89
2022/01/17 07:42:32;;;;;;;;;;;1.20;96.70;;;;;;5075763;28;19919;-89
2022/01/17 07:44:59;;;;;;;;;;;1.20;96.70;;;;;;5092459;28;19912;-88
2022/01/17 07:47:39;;;;;;;;;;;1.30;96.70;;;;;;5087762;28;19912;-88
2022/01/17 07:50:06;;;;;;;;;;;1.40;96.70;;;;;;5081776;28;19914;-88
2022/01/17 07:52:31;;;;;;;;;;;1.40;96.70;;;;;;5082046;28;19912;-89
2022/01/17 07:54:57;;;;;;;;;;;1.40;96.70;;;;;;5084026;28;20385;-89
2022/01/17 07:57:23;;;;;;;;;;;1.50;96.60;;;;;;5079488;28;19919;-89
2022/01/17 07:59:48;;;;;;;;;;;1.40;96.70;;;;;;5084145;28;19927;-89
2022/01/17 08:02:14;;;;;;;;;;;1.30;96.60;;;;;;5085576;28;19912;-89
2022/01/17 08:04:39;;;;;;;;;;;1.20;96.70;;;;;;5074705;28;19909;-89
2022/01/17 08:07:07;;;;;;;;;;;1.10;96.60;;;;;;5078494;28;19912;-89
2022/01/17 08:09:33;;;;;;;;;;;1.00;96.60;;;;;;5079520;28;19912;-88
2022/01/17 08:11:58;;;;;;;;;;;0.90;96.60;;;;;;5092845;28;20293;-88
2022/01/17 08:14:24;;;;;;;;;;;0.90;96.60;;;;;;5079683;28;19998;-90
2022/01/17 08:16:53;;;;;;;;;;;1.10;96.60;;;;;;5081627;28;19920;-88
2022/01/17 08:19:19;;;;;;;;;;;1.20;96.70;;;;;;5088443;28;20387;-88
2022/01/17 08:21:47;;;;;;;;;;;1.40;96.70;;;;;;5081941;28;20040;-88
2022/01/17 08:24:13;;;;;;;;;;;1.40;96.70;;;;;;5091185;28;19938;-88
2022/01/17 08:26:42;;;;;;;;;;;1.40;96.70;;;;;;5089367;28;19916;-88
2022/01/17 08:29:11;;;;;;;;;;;1.40;96.70;;;;;;5085005;28;19930;-89
2022/01/17 08:31:37;;;;;;;;;;;1.30;96.70;;;;;;5072576;28;19912;-88
2022/01/17 08:34:03;;;;;;;;;;;1.10;96.70;;;;;;5074944;28;19908;-88
2022/01/17 08:36:28;;;;;;;;;;;1.10;96.70;;;;;;5076397;28;19927;-88
2022/01/17 08:38:54;;;;;;;;;;;1.10;96.70;;;;;;5082627;28;19995;-88
2022/01/17 08:41:20;;;;;;;;;;;1.10;96.70;;;;;;5086072;28;19919;-89
2022/01/17 08:43:46;;;;;;;;;;;1.20;96.70;;;;;;5081847;28;20383;-89
2022/01/17 08:46:11;;;;;;;;;;;1.20;96.70;;;;;;5090642;28;19916;-89
2022/01/17 08:48:38;;;;;;;;;;;1.40;96.70;;;;;;5079818;28;19991;-89
2022/01/17 08:51:03;;;;;;;;;;;1.40;96.70;;;;;;5089594;28;20215;-89
2022/01/17 08:53:29;;;;;;;;;;;1.40;96.70;;;;;;5078228;28;19923;-89
2022/01/17 08:55:55;;;;;;;;;;;1.50;96.70;;;;;;5088095;28;19916;-89
2022/01/17 08:58:21;;;;;;;;;;;1.50;96.70;;;;;;5079803;28;19912;-89
2022/01/17 09:00:46;;;;;;;;;;;1.50;96.60;;;;;;5076126;28;19920;-89
2022/01/17 09:03:13;;;;;;;;;;;1.50;96.60;;;;;;5072899;28;19913;-89
2022/01/17 09:05:39;;;;;;;;;;;1.40;96.60;;;;;;5074845;28;20388;-89
2022/01/17 09:08:04;;;;;;;;;;;1.40;96.60;;;;;;5082542;28;19913;-89
2022/01/17 09:10:30;;;;;;;;;;;1.30;96.60;;;;;;5078534;28;19948;-89
2022/01/17 09:12:57;;;;;;;;;;;1.50;96.60;;;;;;5088223;28;19919;-89
2022/01/17 09:15:23;;;;;;;;;;;1.70;96.60;;;;;;5079219;28;20316;-89
2022/01/17 09:17:48;;;;;;;;;;;1.70;96.60;;;;;;5073677;28;19912;-89
2022/01/17 09:20:14;;;;;;;;;;;1.70;96.50;;;;;;5081041;28;20026;-89
2022/01/17 09:22:39;;;;;;;;;;;1.90;96.60;;;;;;5083404;28;19966;-89
2022/01/17 09:25:06;;;;;;;;;;;2.00;96.60;;;;;;5094887;28;19918;-89
2022/01/17 09:27:32;;;;;;;;;;;2.10;96.60;;;;;;5093559;28;19912;-89
2022/01/17 09:29:58;;;;;;;;;;;2.20;96.60;;;;;;5089475;28;20370;-89
2022/01/17 09:32:23;;;;;;;;;;;2.50;96.60;;;;;;5086372;28;19913;-89
2022/01/17 09:34:49;;;;;;;;;;;2.70;96.60;;;;;;5076066;28;19924;-89
2022/01/17 09:37:15;;;;;;;;;;;2.90;96.60;;;;;;5087595;28;20008;-89
2022/01/17 09:39:40;;;;;;;;;;;3.00;96.60;;;;;;5083091;28;19919;-89
2022/01/17 09:42:08;;;;;;;;;;;3.00;96.60;;;;;;5086127;28;20362;-89
2022/01/17 09:44:34;;;;;;;;;;;2.90;96.50;;;;;;5090658;28;19917;-89
2022/01/17 09:47:00;;;;;;;;;;;3.00;96.50;;;;;;5085158;28;20003;-89
2022/01/17 09:49:34;;;;;;;;;;;3.10;96.40;;;;;;5079361;28;19948;-88
2022/01/17 09:52:13;;;;;;;;;;;3.20;96.40;;;;;;5081188;28;20003;-88
2022/01/17 09:54:40;;;;;;;;;;;3.40;96.30;;;;;;5087566;28;19916;-88
2022/01/17 09:57:07;;;;;;;;;;;3.40;96.30;;;;;;5081650;28;19955;-88
2022/01/17 09:59:33;;;;;;;;;;;3.30;96.20;;;;;;5088742;28;19916;-88
2022/01/17 10:01:59;;;;;;;;;;;3.20;96.10;;;;;;5086249;28;19922;-88
2022/01/17 10:04:25;;;;;;;;;;;3.30;96.00;;;;;;5083093;28;20019;-88
2022/01/17 10:06:52;;;;;;;;;;;3.30;95.90;;;;;;5076975;28;20015;-88
2022/01/17 10:09:21;;;;;;;;;;;3.40;95.80;;;;;;5083435;28;20390;-89
2022/01/17 10:12:04;;;;;;;;;;;3.60;95.80;;;;;;5085409;28;20392;-88
2022/01/17 10:14:35;;;;;;;;;;;3.70;95.60;;;;;;5081775;28;19913;-88
2022/01/17 10:17:05;;;;;;;;;;;3.80;95.20;;;;;;5084993;28;19923;-88
2022/01/17 10:19:31;;;;;;;;;;;3.80;94.90;;;;;;5087248;28;19999;-88
2022/01/17 10:21:59;;;;;;;;;;;3.90;95.00;;;;;;5082313;28;19995;-88
2022/01/17 10:35:24;;;;;;;;;;;4.30;95.00;;;;;;5086324;28;20384;-88
2022/01/17 10:38:09;;;;;;;;;;;4.30;94.70;;;;;;5087979;28;19916;-88
2022/01/17 10:40:39;;;;;;;;;;;4.30;94.60;;;;;;5079983;28;19912;-88
2022/01/17 10:43:05;;;;;;;;;;;4.40;94.40;;;;;;5081018;28;20003;-88
2022/01/17 10:45:36;;;;;;;;;;;4.40;94.30;;;;;;5075407;28;20433;-88
2022/01/17 10:48:02;;;;;;;;;;;4.70;94.40;;;;;;5090287;28;20297;-88
2022/01/17 10:50:30;;;;;;;;;;;4.80;94.00;;;;;;5088802;28;19911;-88
2022/01/17 10:52:57;;;;;;;;;;;5.10;94.00;;;;;;5089761;28;19912;-88
2022/01/17 10:55:24;;;;;;;;;;;5.40;93.90;;;;;;5087775;28;21801;-88
2022/01/17 10:57:52;;;;;;;;;;;5.40;92.40;;;;;;5079377;28;19913;-88
2022/01/17 11:00:19;;;;;;;;;;;5.40;91.70;;;;;;5079721;28;19912;-88
2022/01/17 11:02:47;;;;;;;;;;;5.50;90.90;;;;;;5086017;28;19912;-88
2022/01/17 11:05:14;;;;;;;;;;;5.60;90.10;;;;;;5084582;28;19974;-88
2022/01/17 11:07:44;;;;;;;;;;;5.70;90.60;;;;;;5081346;28;19971;-88
2022/01/17 11:10:14;;;;;;;;;;;5.80;90.70;;;;;;5076132;28;19962;-88
2022/01/17 11:12:40;;;;;;;;;;;5.90;90.60;;;;;;5094352;28;19948;-88
2022/01/17 11:15:05;;;;;;;;;;;6.20;90.30;;;;;;5094402;28;20000;-88
2022/01/17 11:17:34;;;;;;;;;;;6.40;89.90;;;;;;5094310;28;20354;-88
2022/01/17 11:20:04;;;;;;;;;;;6.60;88.60;;;;;;5094613;28;19912;-89
2022/01/17 11:22:31;;;;;;;;;;;6.80;88.10;;;;;;5094217;28;19961;-88
2022/01/17 11:24:57;;;;;;;;;;;7.00;86.20;;;;;;5094451;28;20041;-88
2022/01/17 11:27:23;;;;;;;;;;;7.10;85.70;;;;;;5094037;28;19938;-88
2022/01/17 11:29:49;;;;;;;;;;;7.30;84.80;;;;;;5094047;28;19909;-88
2022/01/17 11:32:14;;;;;;;;;;;7.50;82.50;;;;;;5094087;28;19908;-88
2022/01/17 11:34:40;;;;;;;;;;;7.70;82.60;;;;;;5093781;28;19914;-88
2022/01/17 11:37:06;;;;;;;;;;;7.90;82.40;;;;;;5093950;28;19999;-88
2022/01/17 11:39:31;;;;;;;;;;;8.00;79.90;;;;;;5093929;28;20066;-88
2022/01/17 11:41:57;;;;;;;;;;;8.00;81.30;;;;;;5093926;28;19909;-88
2022/01/17 11:44:33;;;;;;;;;;;8.10;81.30;;;;;;5093589;28;19908;-88
2022/01/17 11:46:59;;;;;;;;;;;8.20;80.20;;;;;;5093865;28;19916;-88
2022/01/17 11:49:26;;;;;;;;;;;8.00;80.00;;;;;;5093723;28;19950;-88
2022/01/17 11:51:51;;;;;;;;;;;8.30;79.70;;;;;;5093744;28;19908;-88
2022/01/17 11:54:18;;;;;;;;;;;8.60;78.80;;;;;;5093661;28;19915;-88
2022/01/17 11:56:51;;;;;;;;;;;9.00;77.90;;;;;;5093520;28;20424;-88
2022/01/17 11:59:27;;;;;;;;;;;9.60;78.10;;;;;;5093855;28;19987;-88
2022/01/17 12:02:11;;;;;;;;;;;10.10;73.80;;;;;;5093510;28;19908;-88
2022/01/17 12:04:37;;;;;;;;;;;10.10;72.30;;;;;;5093489;28;19934;-88
2022/01/17 12:07:03;;;;;;;;;;;9.90;73.00;;;;;;5093428;28;19908;-88
2022/01/17 12:09:29;;;;;;;;;;;9.60;74.00;;;;;;5093308;28;19908;-88
2022/01/17 12:12:03;;;;;;;;;;;9.50;75.20;;;;;;5093662;28;19953;-88
2022/01/17 12:14:30;;;;;;;;;;;9.50;76.00;;;;;;5093291;28;19912;-87
2022/01/17 12:17:15;;;;;;;;;;;9.40;76.10;;;;;;5093169;28;19912;-88
2022/01/17 12:19:59;;;;;;;;;;;9.60;75.10;;;;;;5093229;28;19990;-87
2022/01/17 12:22:25;;;;;;;;;;;9.90;73.50;;;;;;5093243;28;19908;-88
2022/01/17 12:24:50;;;;;;;;;;;10.10;72.00;;;;;;5093175;28;20434;-88
2022/01/17 12:27:16;;;;;;;;;;;10.10;71.80;;;;;;5087921;28;19920;-88
2022/01/17 12:29:42;;;;;;;;;;;10.70;70.20;;;;;;5088113;28;19951;-88
2022/01/17 12:32:29;;;;;;;;;;;11.50;67.50;;;;;;5091545;28;20381;-88
2022/01/17 12:34:58;;;;;;;;;;;12.10;64.70;;;;;;5076534;22;19932;-88
2022/01/17 12:37:31;;;;;;;;;;;12.50;63.30;;;;;;5084519;28;20400;-88
2022/01/17 12:40:08;;;;;;;;;;;12.70;61.50;;;;;;5090998;28;19912;-88
2022/01/17 12:42:52;;;;;;;;;;;12.80;61.70;;;;;;5080555;28;19912;-88
2022/01/17 12:45:19;;;;;;;;;;;12.90;61.00;;;;;;5081000;28;19958;-88
2022/01/17 12:47:45;;;;;;;;;;;13.10;60.40;;;;;;5084548;28;19912;-87
2022/01/17 12:50:11;;;;;;;;;;;13.20;60.50;;;;;;5084496;28;19913;-88
2022/01/17 12:52:36;;;;;;;;;;;13.60;59.40;;;;;;5088244;28;19916;-88
2022/01/17 12:55:05;;;;;;;;;;;14.00;57.40;;;;;;5078486;28;19961;-88
2022/01/17 12:57:30;;;;;;;;;;;14.20;56.60;;;;;;5085340;28;20422;-88
2022/01/17 12:59:56;;;;;;;;;;;14.20;56.00;;;;;;5086673;28;19924;-88
2022/01/17 13:02:21;;;;;;;;;;;14.50;55.40;;;;;;5088747;28;19912;-88
2022/01/17 13:04:49;;;;;;;;;;;15.00;55.10;;;;;;5094294;28;20254;-88
2022/01/17 13:07:14;;;;;;;;;;;15.50;53.40;;;;;;5090709;28;19958;-88
2022/01/17 13:09:40;;;;;;;;;;;15.50;53.10;;;;;;5089319;28;19948;-88
2022/01/17 13:12:07;;;;;;;;;;;15.50;53.90;;;;;;5090422;28;19913;-88
2022/01/17 13:14:34;;;;;;;;;;;15.50;52.80;;;;;;5088611;28;19912;-88
2022/01/17 13:16:59;;;;;;;;;;;15.30;53.30;;;;;;5091959;28;20198;-88
2022/01/17 13:19:25;;;;;;;;;;;15.00;54.20;;;;;;5092726;28;19967;-88
2022/01/17 13:21:51;;;;;;;;;;;14.80;54.60;;;;;;5095269;28;19920;-88
2022/01/17 13:24:37;;;;;;;;;;;14.50;55.60;;;;;;5091095;28;19920;-88
2022/01/17 13:27:09;;;;;;;;;;;14.50;54.70;;;;;;5088742;28;19912;-87
2022/01/17 13:29:39;;;;;;;;;;;14.40;54.60;;;;;;5089037;28;20385;-87
2022/01/17 13:32:05;;;;;;;;;;;14.00;54.00;;;;;;5092407;28;19999;-87
2022/01/17 13:34:31;;;;;;;;;;;14.00;54.60;;;;;;5087667;28;19969;-88
2022/01/17 13:37:00;;;;;;;;;;;14.10;54.90;;;;;;5088651;28;19928;-88
2022/01/17 13:39:27;;;;;;;;;;;14.40;55.00;;;;;;5088210;28;19919;-88
2022/01/17 13:41:54;;;;;;;;;;;15.10;52.70;;;;;;5088140;28;19967;-88
2022/01/17 13:44:20;;;;;;;;;;;15.30;51.90;;;;;;5092151;28;19915;-88
2022/01/17 13:47:05;;;;;;;;;;;15.50;51.50;;;;;;5089577;28;19912;-88
2022/01/17 13:49:32;;;;;;;;;;;15.70;50.40;;;;;;5093463;28;19919;-88
2022/01/17 13:51:58;;;;;;;;;;;15.90;50.00;;;;;;5099639;28;19908;-87
2022/01/17 13:54:27;;;;;;;;;;;15.60;50.20;;;;;;5091165;28;19931;-88
2022/01/17 13:56:53;;;;;;;;;;;15.30;51.40;;;;;;5091387;28;19932;-87
2022/01/17 14:01:52;;;;;;;;;;;14.90;52.20;;;;;;5100502;27;20689;-88
2022/01/17 14:04:29;;;;;;;;;;;14.40;52.60;;;;;;5102467;28;19920;-88
2022/01/17 14:06:55;;;;;;;;;;;14.40;53.60;;;;;;5109502;28;19917;-88
2022/01/17 14:09:29;;;;;;;;;;;14.30;53.30;;;;;;5103271;28;19921;-87
2022/01/17 14:11:55;;;;;;;;;;;14.20;53.70;;;;;;5103402;28;20006;-89
2022/01/17 14:14:23;;;;;;;;;;;14.60;52.70;;;;;;5093678;28;20003;-88
2022/01/17 14:16:49;;;;;;;;;;;14.70;51.50;;;;;;5102577;28;19919;-88
2022/01/17 14:19:19;;;;;;;;;;;14.80;52.10;;;;;;5103380;28;19932;-88
2022/01/17 14:21:46;;;;;;;;;;;14.80;51.80;;;;;;5099369;28;19947;-88
2022/01/17 14:24:11;;;;;;;;;;;14.60;51.90;;;;;;5099498;28;20412;-88
2022/01/17 14:26:38;;;;;;;;;;;14.60;52.00;;;;;;5096607;28;20042;-88
2022/01/17 14:29:08;;;;;;;;;;;14.60;53.40;;;;;;5098310;28;19919;-87
2022/01/17 14:31:35;;;;;;;;;;;14.30;52.60;;;;;;5095344;28;20022;-87
2022/01/17 14:34:30;;;;;;;;;;;13.90;54.90;;;;;;5100415;28;19912;-87
2022/01/17 14:36:57;;;;;;;;;;;13.90;54.20;;;;;;5084706;28;20011;-87
2022/01/17 14:39:34;;;;;;;;;;;14.00;54.00;;;;;;5099071;28;20003;-87
2022/01/17 14:42:07;;;;;;;;;;;13.40;55.70;;;;;;5099622;28;19912;-86
2022/01/17 14:44:34;;;;;;;;;;;13.40;56.80;;;;;;5110839;28;20003;-87
2022/01/17 14:47:00;;;;;;;;;;;13.70;56.70;;;;;;5098047;28;19919;-87
2022/01/17 14:49:28;;;;;;;;;;;13.90;55.70;;;;;;5103778;28;19944;-87
2022/01/17 14:51:55;;;;;;;;;;;13.90;55.20;;;;;;5096284;28;19919;-87
2022/01/17 15:00:11;;;;;;;;;;;13.10;57.20;;;;;;5094503;28;20388;-87
2022/01/17 15:02:54;;;;;;;;;;;13.00;57.40;;;;;;5098872;28;19919;-87
2022/01/17 15:05:20;;;;;;;;;;;12.90;57.60;;;;;;5102339;28;20307;-86
2022/01/17 15:07:46;;;;;;;;;;;12.60;58.80;;;;;;5103462;28;19912;-87
2022/01/17 15:10:12;;;;;;;;;;;12.40;59.60;;;;;;5101691;28;19916;-86
2022/01/17 15:12:38;;;;;;;;;;;11.90;60.90;;;;;;5093223;28;19927;-86
2022/01/17 15:15:03;;;;;;;;;;;11.60;62.20;;;;;;5090498;28;19918;-87
2022/01/17 15:17:30;;;;;;;;;;;11.30;63.20;;;;;;5087843;28;19912;-87
2022/01/17 15:19:56;;;;;;;;;;;11.00;64.00;;;;;;5082676;28;19971;-87
2022/01/17 15:22:22;;;;;;;;;;;10.70;65.40;;;;;;5086449;28;19963;-87
2022/01/17 15:24:47;;;;;;;;;;;10.50;65.90;;;;;;5087584;28;20390;-87
2022/01/17 15:27:13;;;;;;;;;;;10.50;66.90;;;;;;5082391;28;19989;-87
2022/01/17 15:29:39;;;;;;;;;;;10.60;66.90;;;;;;5085692;28;19916;-87
2022/01/17 15:32:09;;;;;;;;;;;10.60;66.50;;;;;;5089355;28;19998;-87
2022/01/17 15:34:35;;;;;;;;;;;10.60;66.20;;;;;;5080125;28;20362;-87
2022/01/17 15:37:01;;;;;;;;;;;10.60;66.20;;;;;;5079815;28;19956;-86
2022/01/17 15:39:27;;;;;;;;;;;10.40;66.70;;;;;;5084395;28;19912;-86
2022/01/17 15:41:52;;;;;;;;;;;10.30;67.20;;;;;;5085626;28;19977;-87
2022/01/17 15:44:18;;;;;;;;;;;10.10;67.70;;;;;;5089696;28;19920;-87
2022/01/17 15:46:44;;;;;;;;;;;9.90;69.10;;;;;;5081964;28;19916;-87
2022/01/17 15:49:11;;;;;;;;;;;9.80;69.10;;;;;;5085605;28;19920;-87
2022/01/17 15:51:37;;;;;;;;;;;9.60;69.60;;;;;;5083255;28;19916;-87
2022/01/17 15:54:03;;;;;;;;;;;9.60;70.00;;;;;;5081304;28;19970;-87
2022/01/17 15:56:29;;;;;;;;;;;9.40;70.70;;;;;;5084743;28;19923;-87
2022/01/17 15:58:55;;;;;;;;;;;9.30;71.00;;;;;;5082467;28;19999;-86
2022/01/17 16:01:20;;;;;;;;;;;9.30;71.20;;;;;;5082320;28;19921;-86
2022/01/17 16:03:46;;;;;;;;;;;9.30;70.70;;;;;;5083483;28;20411;-86
2022/01/17 16:06:11;;;;;;;;;;;9.10;70.80;;;;;;5085837;28;20330;-86
2022/01/17 16:08:39;;;;;;;;;;;8.90;71.80;;;;;;5083553;28;19927;-86
2022/01/17 16:11:05;;;;;;;;;;;8.80;72.10;;;;;;5080668;28;20369;-87
2022/01/17 16:13:31;;;;;;;;;;;8.70;73.20;;;;;;5083326;28;20002;-86
2022/01/17 16:15:56;;;;;;;;;;;8.60;74.10;;;;;;5079851;28;19952;-87